createdAt,value
2023-05-11T00:00:06.086Z,34.40
2023-05-11T00:01:06.098Z,34.38
2023-05-11T00:02:06.161Z,34.43
2023-05-11T00:03:06.302Z,34.36
2023-05-11T00:04:06.333Z,34.36
2023-05-11T00:05:06.212Z,34.35
2023-05-11T00:06:06.262Z,34.35
2023-05-11T00:07:06.290Z,34.33
2023-05-11T00:08:06.316Z,34.32
2023-05-11T00:09:06.331Z,34.30
2023-05-11T00:10:06.366Z,34.32
2023-05-11T00:11:06.420Z,34.29
2023-05-11T00:12:06.446Z,34.30
2023-05-11T00:13:06.482Z,34.27
2023-05-11T00:14:06.504Z,34.23
2023-05-11T00:15:06.534Z,34.23
2023-05-11T00:16:06.626Z,34.26
2023-05-11T00:17:06.605Z,34.25
2023-05-11T00:18:06.647Z,34.30
2023-05-11T00:19:06.792Z,34.28
2023-05-11T00:20:06.709Z,34.27
2023-05-11T00:21:06.715Z,34.26
2023-05-11T00:22:06.744Z,34.24
2023-05-11T00:23:06.781Z,34.21
2023-05-11T00:24:06.814Z,34.22
2023-05-11T00:25:06.852Z,34.24
2023-05-11T00:26:06.887Z,34.23
2023-05-11T00:27:06.910Z,34.25
2023-05-11T00:28:06.947Z,34.22
2023-05-11T00:29:06.966Z,34.25
2023-05-11T00:30:06.995Z,34.22
2023-05-11T00:31:07.052Z,34.18
2023-05-11T00:32:07.066Z,34.21
2023-05-11T00:33:07.181Z,34.20
2023-05-11T00:34:07.131Z,34.19
2023-05-11T00:35:07.149Z,34.18
2023-05-11T00:36:07.171Z,34.19
2023-05-11T00:37:07.225Z,34.15
2023-05-11T00:38:07.243Z,34.14
2023-05-11T00:39:07.295Z,34.16
2023-05-11T00:40:07.319Z,34.14
2023-05-11T00:41:07.348Z,34.14
2023-05-11T00:42:07.395Z,34.12
2023-05-11T00:43:07.424Z,34.09
2023-05-11T00:44:07.479Z,34.08
2023-05-11T00:45:07.485Z,34.09
2023-05-11T00:46:07.520Z,34.08
2023-05-11T00:47:07.712Z,34.13
2023-05-11T00:48:07.586Z,34.09
2023-05-11T00:49:07.632Z,34.09
2023-05-11T00:50:07.681Z,34.04
2023-05-11T00:51:07.693Z,34.07
2023-05-11T00:52:07.735Z,34.04
2023-05-11T00:53:07.757Z,34.03
2023-05-11T00:54:07.832Z,34.08
2023-05-11T00:55:07.843Z,34.04
2023-05-11T00:56:07.865Z,34.04
2023-05-11T00:57:07.916Z,34.01
2023-05-11T00:58:07.923Z,34.01
2023-05-11T00:59:07.994Z,34.00
2023-05-11T01:00:08.011Z,33.97
2023-05-11T01:01:08.127Z,33.99
2023-05-11T01:02:08.098Z,33.95
2023-05-11T01:03:08.146Z,33.96
2023-05-11T01:04:08.176Z,34.01
2023-05-11T01:05:08.211Z,33.99
2023-05-11T01:06:08.228Z,33.97
2023-05-11T01:07:08.261Z,33.94
2023-05-11T01:08:08.301Z,33.97
2023-05-11T01:09:08.381Z,33.94
2023-05-11T01:10:08.404Z,33.93
2023-05-11T01:11:08.514Z,33.90
2023-05-11T01:12:08.461Z,33.90
2023-05-11T01:13:08.507Z,33.88
2023-05-11T01:14:08.561Z,33.89
2023-05-11T01:15:08.576Z,33.91
2023-05-11T01:16:08.657Z,33.89
2023-05-11T01:17:08.668Z,33.86
2023-05-11T01:18:08.743Z,33.88
2023-05-11T01:19:08.790Z,33.85
2023-05-11T01:20:08.805Z,33.83
2023-05-11T01:21:08.829Z,33.82
2023-05-11T01:22:08.849Z,33.82
2023-05-11T01:23:08.919Z,33.78
2023-05-11T01:24:08.987Z,33.80
2023-05-11T01:25:08.991Z,33.81
2023-05-11T01:26:09.024Z,33.79
2023-05-11T01:27:09.059Z,33.80
2023-05-11T01:28:09.107Z,33.78
2023-05-11T01:29:09.151Z,33.77
2023-05-11T01:30:09.166Z,33.75
2023-05-11T01:31:09.259Z,33.73
2023-05-11T01:32:09.301Z,33.74
2023-05-11T01:33:09.322Z,33.78
2023-05-11T01:34:09.333Z,33.72
2023-05-11T01:35:09.374Z,33.71
2023-05-11T01:36:09.396Z,33.71
2023-05-11T01:37:09.452Z,33.70
2023-05-11T01:38:09.463Z,33.69
2023-05-11T01:39:09.516Z,33.66
2023-05-11T01:40:09.550Z,33.66
2023-05-11T01:41:09.558Z,33.62
2023-05-11T01:42:09.598Z,33.64
2023-05-11T01:43:09.635Z,33.62
2023-05-11T01:44:09.674Z,33.58
2023-05-11T01:45:09.710Z,33.62
2023-05-11T01:46:09.789Z,33.57
2023-05-11T01:47:09.775Z,33.58
2023-05-11T01:48:09.871Z,33.53
2023-05-11T01:49:09.847Z,33.53
2023-05-11T01:50:09.893Z,33.55
2023-05-11T01:51:09.910Z,33.56
2023-05-11T01:52:09.987Z,33.53
2023-05-11T01:53:09.993Z,33.54
2023-05-11T01:54:10.007Z,33.52
2023-05-11T01:55:10.061Z,33.52
2023-05-11T01:56:10.101Z,33.50
2023-05-11T01:57:10.136Z,33.52
2023-05-11T01:58:10.149Z,33.51
2023-05-11T01:59:10.208Z,33.47
2023-05-11T02:00:10.223Z,33.46
2023-05-11T02:01:10.335Z,33.46
2023-05-11T02:02:10.331Z,33.47
2023-05-11T02:03:10.475Z,33.44
2023-05-11T02:04:10.383Z,33.43
2023-05-11T02:05:10.401Z,33.39
2023-05-11T02:06:10.443Z,33.40
2023-05-11T02:07:10.492Z,33.39
2023-05-11T02:08:10.515Z,33.39
2023-05-11T02:09:10.581Z,33.37
2023-05-11T02:10:10.603Z,33.34
2023-05-11T02:11:10.652Z,33.34
2023-05-11T02:12:10.668Z,33.30
2023-05-11T02:13:10.724Z,33.34
2023-05-11T02:14:10.753Z,33.36
2023-05-11T02:15:10.759Z,33.35
2023-05-11T02:16:10.774Z,33.32
2023-05-11T02:17:10.761Z,33.33
2023-05-11T02:18:10.730Z,33.34
2023-05-11T02:19:10.875Z,33.32
2023-05-11T02:20:10.730Z,33.36
2023-05-11T02:21:10.737Z,33.31
2023-05-11T02:22:10.751Z,33.27
2023-05-11T02:23:10.724Z,33.31
2023-05-11T02:24:10.722Z,33.27
2023-05-11T02:25:10.736Z,33.27
2023-05-11T02:26:10.735Z,33.27
2023-05-11T02:27:10.715Z,33.28
2023-05-11T02:28:10.721Z,33.27
2023-05-11T02:29:10.722Z,33.27
2023-05-11T02:30:10.756Z,33.25
2023-05-11T02:31:10.798Z,33.25
2023-05-11T02:32:10.828Z,33.21
2023-05-11T02:33:10.933Z,33.20
2023-05-11T02:34:10.912Z,33.22
2023-05-11T02:35:10.979Z,33.21
2023-05-11T02:36:10.991Z,33.22
2023-05-11T02:37:11.045Z,33.18
2023-05-11T02:38:11.058Z,33.20
2023-05-11T02:39:11.105Z,33.22
2023-05-11T02:40:11.146Z,33.22
2023-05-11T02:41:11.203Z,33.18
2023-05-11T02:42:11.213Z,33.19
2023-05-11T02:43:11.253Z,33.21
2023-05-11T02:44:11.303Z,33.18
2023-05-11T02:45:11.341Z,33.18
2023-05-11T02:46:11.412Z,33.17
2023-05-11T02:47:11.428Z,33.18
2023-05-11T02:48:11.511Z,33.15
2023-05-11T02:49:11.498Z,33.17
2023-05-11T02:50:11.542Z,33.16
2023-05-11T02:51:11.599Z,33.13
2023-05-11T02:52:11.640Z,33.16
2023-05-11T02:53:11.657Z,33.19
2023-05-11T02:54:11.737Z,33.16
2023-05-11T02:55:11.762Z,33.14
2023-05-11T02:56:11.798Z,33.14
2023-05-11T02:57:11.827Z,33.14
2023-05-11T02:58:11.900Z,33.10
2023-05-11T02:59:11.937Z,33.13
2023-05-11T03:00:12.038Z,33.09
2023-05-11T03:01:12.230Z,33.10
2023-05-11T03:02:12.135Z,33.09
2023-05-11T03:03:12.156Z,33.09
2023-05-11T03:04:12.143Z,33.11
2023-05-11T03:05:12.220Z,33.11
2023-05-11T03:06:12.205Z,33.07
2023-05-11T03:07:12.271Z,33.04
2023-05-11T03:08:12.313Z,33.06
2023-05-11T03:09:12.339Z,33.07
2023-05-11T03:10:12.426Z,33.08
2023-05-11T03:11:12.455Z,33.09
2023-05-11T03:12:12.490Z,33.07
2023-05-11T03:13:12.546Z,33.05
2023-05-11T03:14:12.581Z,33.07
2023-05-11T03:15:12.614Z,33.04
2023-05-11T03:16:12.711Z,33.03
2023-05-11T03:17:12.724Z,33.02
2023-05-11T03:18:12.735Z,33.05
2023-05-11T03:19:12.790Z,33.05
2023-05-11T03:20:12.834Z,33.04
2023-05-11T03:21:12.862Z,33.01
2023-05-11T03:22:12.917Z,33.00
2023-05-11T03:23:12.974Z,33.02
2023-05-11T03:24:13.020Z,33.00
2023-05-11T03:25:13.033Z,32.98
2023-05-11T03:26:13.069Z,32.97
2023-05-11T03:27:13.121Z,32.99
2023-05-11T03:28:13.171Z,33.00
2023-05-11T03:29:13.234Z,32.98
2023-05-11T03:30:13.264Z,32.96
2023-05-11T03:31:13.307Z,32.97
2023-05-11T03:32:13.402Z,32.96
2023-05-11T03:33:13.421Z,32.94
2023-05-11T03:34:13.448Z,32.95
2023-05-11T03:35:13.513Z,32.92
2023-05-11T03:36:13.537Z,32.92
2023-05-11T03:37:13.609Z,32.91
2023-05-11T03:38:13.645Z,32.94
2023-05-11T03:39:13.690Z,32.94
2023-05-11T03:40:13.746Z,32.92
2023-05-11T03:41:13.784Z,32.94
2023-05-11T03:42:13.839Z,32.90
2023-05-11T03:43:13.867Z,32.90
2023-05-11T03:44:13.913Z,32.89
2023-05-11T03:45:13.973Z,32.89
2023-05-11T03:46:14.045Z,32.90
2023-05-11T03:47:14.039Z,32.90
2023-05-11T03:48:14.103Z,32.92
2023-05-11T03:49:14.139Z,32.92
2023-05-11T03:50:14.181Z,32.91
2023-05-11T03:51:14.254Z,32.89
2023-05-11T03:52:14.260Z,32.89
2023-05-11T03:53:14.298Z,32.89
2023-05-11T03:54:14.348Z,32.85
2023-05-11T03:55:14.380Z,32.86
2023-05-11T03:56:14.417Z,32.85
2023-05-11T03:57:14.473Z,32.85
2023-05-11T03:58:14.513Z,32.88
2023-05-11T03:59:14.577Z,32.86
2023-05-11T04:00:14.629Z,32.85
2023-05-11T04:01:14.668Z,32.86
2023-05-11T04:02:14.759Z,32.85
2023-05-11T04:03:14.867Z,32.89
2023-05-11T04:04:14.909Z,32.88
2023-05-11T04:05:14.855Z,32.85
2023-05-11T04:06:14.902Z,32.87
2023-05-11T04:07:14.980Z,32.87
2023-05-11T04:08:14.979Z,32.85
2023-05-11T04:09:15.046Z,32.87
2023-05-11T04:10:15.050Z,32.83
2023-05-11T04:11:15.093Z,32.82
2023-05-11T04:12:15.139Z,32.81
2023-05-11T04:13:15.191Z,32.82
2023-05-11T04:14:15.232Z,32.80
2023-05-11T04:15:15.287Z,32.80
2023-05-11T04:16:15.327Z,32.81
2023-05-11T04:17:15.362Z,32.79
2023-05-11T04:18:15.391Z,32.81
2023-05-11T04:19:15.385Z,32.80
2023-05-11T04:20:15.518Z,32.78
2023-05-11T04:21:15.460Z,32.80
2023-05-11T04:22:15.481Z,32.77
2023-05-11T04:23:15.539Z,32.82
2023-05-11T04:24:15.585Z,32.79
2023-05-11T04:25:15.631Z,32.79
2023-05-11T04:26:15.687Z,32.72
2023-05-11T04:27:15.715Z,32.72
2023-05-11T04:28:15.767Z,32.73
2023-05-11T04:29:15.831Z,32.73
2023-05-11T04:30:16.050Z,32.75
2023-05-11T04:31:16.061Z,32.75
2023-05-11T04:32:15.965Z,32.71
2023-05-11T04:33:16.001Z,32.70
2023-05-11T04:34:16.045Z,32.66
2023-05-11T04:35:16.116Z,32.68
2023-05-11T04:36:16.152Z,32.65
2023-05-11T04:37:16.190Z,32.64
2023-05-11T04:38:16.226Z,32.65
2023-05-11T04:39:16.283Z,32.63
2023-05-11T04:40:16.408Z,32.63
2023-05-11T04:41:16.393Z,32.62
2023-05-11T04:42:16.429Z,32.62
2023-05-11T04:43:16.470Z,32.66
2023-05-11T04:44:16.520Z,32.61
2023-05-11T04:45:16.585Z,32.58
2023-05-11T04:46:16.617Z,32.62
2023-05-11T04:47:16.659Z,32.59
2023-05-11T04:48:19.590Z,32.55
2023-05-11T04:49:16.699Z,32.55
2023-05-11T04:50:16.869Z,32.49
2023-05-11T04:51:16.693Z,32.54
2023-05-11T04:52:16.678Z,32.54
2023-05-11T04:53:16.679Z,32.47
2023-05-11T04:54:16.670Z,32.49
2023-05-11T04:55:16.670Z,32.48
2023-05-11T04:56:16.671Z,32.44
2023-05-11T04:57:16.647Z,32.45
2023-05-11T04:58:16.668Z,32.45
2023-05-11T04:59:16.648Z,32.48
2023-05-11T05:00:16.836Z,32.46
2023-05-11T05:01:16.651Z,32.39
2023-05-11T05:02:16.631Z,32.44
2023-05-11T05:03:16.638Z,32.42
2023-05-11T05:04:16.865Z,32.40
2023-05-11T05:05:16.597Z,32.41
2023-05-11T05:06:16.593Z,32.35
2023-05-11T05:07:16.576Z,32.32
2023-05-11T05:08:16.581Z,32.35
2023-05-11T05:09:16.558Z,32.31
2023-05-11T05:10:16.827Z,32.29
2023-05-11T05:11:16.581Z,32.26
2023-05-11T05:12:16.554Z,32.26
2023-05-11T05:13:16.569Z,32.30
2023-05-11T05:14:16.580Z,32.22
2023-05-11T05:15:16.552Z,32.21
2023-05-11T05:16:16.633Z,32.24
2023-05-11T05:17:16.634Z,32.15
2023-05-11T05:18:16.687Z,32.16
2023-05-11T05:19:16.753Z,32.11
2023-05-11T05:20:17.047Z,32.10
2023-05-11T05:21:16.838Z,32.05
2023-05-11T05:22:16.889Z,32.04
2023-05-11T05:23:16.934Z,32.05
2023-05-11T05:24:17.007Z,32.07
2023-05-11T05:25:17.091Z,31.99
2023-05-11T05:26:17.111Z,32.06
2023-05-11T05:27:17.169Z,31.96
2023-05-11T05:28:17.225Z,31.97
2023-05-11T05:29:17.259Z,31.87
2023-05-11T05:30:17.844Z,31.88
2023-05-11T05:31:17.482Z,32.66
2023-05-11T05:32:17.453Z,33.20
2023-05-11T05:33:18.317Z,33.37
2023-05-11T05:34:17.525Z,34.02
2023-05-11T05:35:17.601Z,34.38
2023-05-11T05:36:17.620Z,34.05
2023-05-11T05:37:17.690Z,34.28
2023-05-11T05:38:17.759Z,35.08
2023-05-11T05:39:17.815Z,34.98
2023-05-11T05:40:18.376Z,34.82
2023-05-11T05:41:17.956Z,35.01
2023-05-11T05:42:17.992Z,35.04
2023-05-11T05:43:18.009Z,34.92
2023-05-11T05:44:18.061Z,34.90
2023-05-11T05:45:18.137Z,35.26
2023-05-11T05:46:18.183Z,35.02
2023-05-11T05:47:18.154Z,34.83
2023-05-11T05:48:18.191Z,35.02
2023-05-11T05:49:18.183Z,35.36
2023-05-11T05:50:18.322Z,34.75
2023-05-11T05:51:18.205Z,34.72
2023-05-11T05:52:18.209Z,34.47
2023-05-11T05:53:18.226Z,34.43
2023-05-11T05:54:18.269Z,34.31
2023-05-11T05:55:18.302Z,34.42
2023-05-11T05:56:18.308Z,34.47
2023-05-11T05:57:18.286Z,34.32
2023-05-11T05:58:18.280Z,34.19
2023-05-11T05:59:18.314Z,34.31
2023-05-11T06:00:18.472Z,34.31
2023-05-11T06:01:18.317Z,34.20
2023-05-11T06:02:18.374Z,34.13
2023-05-11T06:03:18.403Z,34.00
2023-05-11T06:04:18.469Z,33.70
2023-05-11T06:05:18.336Z,33.92
2023-05-11T06:06:18.355Z,34.15
2023-05-11T06:07:18.392Z,34.07
2023-05-11T06:08:18.400Z,34.03
2023-05-11T06:09:18.422Z,34.17
2023-05-11T06:10:18.608Z,33.72
2023-05-11T06:11:18.416Z,33.64
2023-05-11T06:12:18.431Z,34.08
2023-05-11T06:13:18.437Z,34.19
2023-05-11T06:14:18.489Z,33.89
2023-05-11T06:15:18.523Z,33.80
2023-05-11T06:16:18.537Z,33.51
2023-05-11T06:17:18.515Z,33.67
2023-05-11T06:18:18.563Z,33.87
2023-05-11T06:19:18.559Z,33.92
2023-05-11T06:20:18.788Z,33.90
2023-05-11T06:21:19.116Z,33.50
2023-05-11T06:22:18.697Z,33.33
2023-05-11T06:23:18.777Z,33.49
2023-05-11T06:24:18.824Z,33.63
2023-05-11T06:25:19.114Z,33.72
2023-05-11T06:26:18.931Z,33.64
2023-05-11T06:27:19.016Z,33.71
2023-05-11T06:28:19.063Z,33.41
2023-05-11T06:29:19.150Z,33.66
2023-05-11T06:30:19.461Z,33.42
2023-05-11T06:31:19.311Z,33.45
2023-05-11T06:32:19.307Z,33.44
2023-05-11T06:33:19.355Z,33.20
2023-05-11T06:34:19.438Z,33.51
2023-05-11T06:35:19.638Z,33.31
2023-05-11T06:36:19.650Z,32.09
2023-05-11T06:37:19.602Z,31.96
2023-05-11T06:38:19.599Z,31.93
2023-05-11T06:39:19.652Z,32.36
2023-05-11T06:40:19.969Z,32.61
2023-05-11T06:41:20.155Z,32.92
2023-05-11T06:42:19.804Z,33.17
2023-05-11T06:43:19.872Z,33.58
2023-05-11T06:44:19.940Z,34.00
2023-05-11T06:45:20.023Z,33.97
2023-05-11T06:46:20.215Z,33.93
2023-05-11T06:47:20.170Z,33.77
2023-05-11T06:48:20.132Z,33.93
2023-05-11T06:49:20.169Z,33.51
2023-05-11T06:50:21.287Z,33.72
2023-05-11T06:51:20.692Z,33.80
2023-05-11T06:52:20.164Z,33.69
2023-05-11T06:53:20.244Z,33.59
2023-05-11T06:54:20.194Z,33.72
2023-05-11T06:55:20.207Z,33.64
2023-05-11T06:56:20.630Z,33.63
2023-05-11T06:57:20.276Z,33.52
2023-05-11T06:58:20.286Z,33.31
2023-05-11T06:59:20.317Z,33.50
2023-05-11T07:00:20.446Z,33.33
2023-05-11T07:01:20.804Z,33.37
2023-05-11T07:02:20.441Z,33.14
2023-05-11T07:03:20.476Z,33.32
2023-05-11T07:04:20.569Z,33.49
2023-05-11T07:05:20.568Z,33.43
2023-05-11T07:06:20.600Z,33.36
2023-05-11T07:07:20.616Z,32.76
2023-05-11T07:08:20.655Z,32.98
2023-05-11T07:09:20.704Z,33.00
2023-05-11T07:10:21.006Z,32.82
2023-05-11T07:11:20.779Z,33.16
2023-05-11T07:12:20.806Z,33.13
2023-05-11T07:13:20.837Z,33.13
2023-05-11T07:14:20.894Z,33.16
2023-05-11T07:15:20.945Z,33.14
2023-05-11T07:16:21.192Z,33.20
2023-05-11T07:17:21.098Z,33.20
2023-05-11T07:18:21.157Z,33.19
2023-05-11T07:19:21.196Z,33.20
2023-05-11T07:20:21.355Z,33.32
2023-05-11T07:21:21.660Z,32.87
2023-05-11T07:22:21.353Z,32.72
2023-05-11T07:23:21.424Z,32.99
2023-05-11T07:24:21.460Z,33.10
2023-05-11T07:25:21.531Z,32.96
2023-05-11T07:26:21.646Z,32.78
2023-05-11T07:27:21.627Z,32.83
2023-05-11T07:28:21.695Z,32.72
2023-05-11T07:29:21.732Z,32.84
2023-05-11T07:30:21.923Z,33.26
2023-05-11T07:31:22.188Z,33.18
2023-05-11T07:32:21.948Z,32.98
2023-05-11T07:33:22.012Z,32.32
2023-05-11T07:34:22.064Z,32.26
2023-05-11T07:35:23.892Z,32.24
2023-05-11T07:36:22.165Z,32.14
2023-05-11T07:37:22.087Z,32.17
2023-05-11T07:38:22.072Z,32.18
2023-05-11T07:39:22.083Z,32.13
2023-05-11T07:40:22.204Z,32.11
2023-05-11T07:41:22.150Z,32.08
2023-05-11T07:42:22.176Z,32.17
2023-05-11T07:43:22.202Z,32.32
2023-05-11T07:44:22.204Z,32.44
2023-05-11T07:45:22.208Z,32.56
2023-05-11T07:46:22.284Z,32.68
2023-05-11T07:47:22.362Z,32.79
2023-05-11T07:48:22.364Z,32.97
2023-05-11T07:49:28.172Z,32.97
2023-05-11T07:50:24.666Z,33.01
2023-05-11T07:51:22.567Z,33.02
2023-05-11T07:52:22.587Z,33.21
2023-05-11T07:53:22.637Z,33.59
2023-05-11T07:54:22.661Z,33.67
2023-05-11T07:55:22.686Z,33.64
2023-05-11T07:56:23.170Z,33.69
2023-05-11T07:57:22.714Z,33.64
2023-05-11T07:58:22.715Z,33.45
2023-05-11T07:59:22.713Z,33.38
2023-05-11T08:00:23.053Z,33.36
2023-05-11T08:01:23.179Z,33.03
2023-05-11T08:02:22.800Z,32.92
2023-05-11T08:03:22.847Z,33.01
2023-05-11T08:04:22.751Z,32.91
2023-05-11T08:05:22.868Z,32.71
2023-05-11T08:06:22.901Z,32.91
2023-05-11T08:07:22.876Z,32.90
2023-05-11T08:08:22.970Z,32.73
2023-05-11T08:09:23.015Z,32.54
2023-05-11T08:10:23.156Z,32.45
2023-05-11T08:11:23.118Z,32.44
2023-05-11T08:12:23.186Z,32.21
2023-05-11T08:13:23.259Z,32.45
2023-05-11T08:14:23.310Z,32.33
2023-05-11T08:15:23.377Z,32.27
2023-05-11T08:16:23.895Z,32.37
2023-05-11T08:17:23.520Z,32.20
2023-05-11T08:18:23.569Z,32.50
2023-05-11T08:19:23.614Z,32.48
2023-05-11T08:20:24.181Z,32.32
2023-05-11T08:21:23.764Z,31.63
2023-05-11T08:22:23.785Z,31.43
2023-05-11T08:23:23.818Z,32.48
2023-05-11T08:24:23.948Z,33.17
2023-05-11T08:25:24.181Z,33.77
2023-05-11T08:26:23.860Z,33.71
2023-05-11T08:27:23.871Z,33.58
2023-05-11T08:28:23.905Z,33.77
2023-05-11T08:29:23.973Z,33.91
2023-05-11T08:30:23.976Z,33.87
2023-05-11T08:31:24.115Z,34.07
2023-05-11T08:32:24.100Z,34.15
2023-05-11T08:33:36.409Z,34.12
2023-05-11T08:34:25.206Z,34.14
2023-05-11T08:35:24.091Z,34.28
2023-05-11T08:36:24.055Z,34.49
2023-05-11T08:37:24.065Z,34.61
2023-05-11T08:38:24.058Z,34.42
2023-05-11T08:39:38.863Z,34.07
2023-05-11T08:40:25.051Z,34.11
2023-05-11T08:41:24.186Z,34.01
2023-05-11T08:42:24.020Z,33.85
2023-05-11T08:43:23.995Z,33.80
2023-05-11T08:44:24.020Z,33.64
2023-05-11T08:45:23.991Z,33.38
2023-05-11T08:46:24.080Z,33.46
2023-05-11T08:47:24.137Z,33.43
2023-05-11T08:48:24.011Z,33.30
2023-05-11T08:49:23.955Z,33.27
2023-05-11T08:50:23.949Z,33.07
2023-05-11T08:51:24.185Z,33.03
2023-05-11T08:52:23.963Z,33.31
2023-05-11T08:53:23.932Z,32.89
2023-05-11T08:54:23.916Z,33.11
2023-05-11T08:55:23.914Z,33.11
2023-05-11T08:56:23.908Z,33.09
2023-05-11T08:57:23.944Z,32.94
2023-05-11T08:58:23.909Z,32.78
2023-05-11T08:59:23.949Z,32.91
2023-05-11T09:00:24.023Z,32.97
2023-05-11T09:01:24.220Z,32.93
2023-05-11T09:02:24.184Z,33.04
2023-05-11T09:03:24.208Z,32.94
2023-05-11T09:04:24.240Z,32.90
2023-05-11T09:05:24.315Z,32.90
2023-05-11T09:06:24.685Z,32.79
2023-05-11T09:07:24.386Z,32.52
2023-05-11T09:08:24.432Z,32.74
2023-05-11T09:09:24.469Z,32.57
2023-05-11T09:10:24.521Z,32.72
2023-05-11T09:11:24.689Z,32.75
2023-05-11T09:12:24.612Z,32.66
2023-05-11T09:13:24.649Z,32.85
2023-05-11T09:14:27.687Z,32.88
2023-05-11T09:15:24.688Z,32.59
2023-05-11T09:16:36.733Z,32.79
2023-05-11T09:17:25.727Z,32.86
2023-05-11T09:18:24.710Z,32.86
2023-05-11T09:19:24.661Z,32.32
2023-05-11T09:20:24.670Z,32.06
2023-05-11T09:21:24.639Z,32.87
2023-05-11T09:22:24.625Z,33.41
2023-05-11T09:23:24.642Z,34.13
2023-05-11T09:24:24.619Z,34.76
2023-05-11T09:25:24.604Z,35.32
2023-05-11T09:26:24.692Z,35.55
2023-05-11T09:27:24.607Z,35.54
2023-05-11T09:28:26.078Z,35.48
2023-05-11T09:30:25.616Z,35.81
2023-05-11T09:31:24.646Z,36.43
2023-05-11T09:32:24.637Z,36.63
2023-05-11T09:33:24.583Z,36.56
2023-05-11T09:34:24.601Z,36.53
2023-05-11T09:35:24.596Z,36.42
2023-05-11T09:36:24.584Z,36.16
2023-05-11T09:37:24.587Z,35.88
2023-05-11T09:38:24.570Z,35.76
2023-05-11T09:39:35.551Z,35.68
2023-05-11T09:40:27.392Z,35.46
2023-05-11T09:41:25.542Z,35.37
2023-05-11T09:42:24.528Z,35.30
2023-05-11T09:43:24.527Z,35.19
2023-05-11T09:44:24.531Z,35.13
2023-05-11T09:45:24.511Z,35.12
2023-05-11T09:46:24.553Z,34.91
2023-05-11T09:47:24.712Z,34.85
2023-05-11T09:48:24.470Z,34.85
2023-05-11T09:49:24.475Z,34.81
2023-05-11T09:50:26.870Z,34.78
2023-05-11T09:51:24.515Z,34.74
2023-05-11T09:52:24.718Z,34.69
2023-05-11T09:53:26.589Z,34.73
2023-05-11T09:54:24.500Z,34.75
2023-05-11T09:55:24.521Z,34.65
2023-05-11T09:56:24.531Z,34.59
2023-05-11T09:57:24.612Z,34.59
2023-05-11T09:58:24.579Z,34.61
2023-05-11T09:59:26.239Z,34.69
2023-05-11T10:00:24.612Z,34.76
2023-05-11T10:01:24.677Z,34.59
2023-05-11T10:02:24.707Z,34.57
2023-05-11T10:03:24.724Z,34.62
2023-05-11T10:04:24.802Z,34.59
2023-05-11T10:05:24.646Z,34.57
2023-05-11T10:06:24.650Z,34.56
2023-05-11T10:07:24.681Z,34.54
2023-05-11T10:08:24.703Z,34.46
2023-05-11T10:09:24.747Z,34.36
2023-05-11T10:10:24.713Z,34.32
2023-05-11T10:11:26.254Z,34.37
2023-05-11T10:12:24.746Z,34.37
2023-05-11T10:13:24.755Z,34.34
2023-05-11T10:14:24.781Z,34.34
2023-05-11T10:15:24.783Z,34.31
2023-05-11T10:16:24.835Z,34.32
2023-05-11T10:17:24.827Z,34.40
2023-05-11T10:18:24.898Z,34.45
2023-05-11T10:19:24.852Z,34.49
2023-05-11T10:20:24.893Z,34.63
2023-05-11T10:21:24.936Z,34.52
2023-05-11T10:22:25.000Z,34.45
2023-05-11T10:23:24.980Z,34.53
2023-05-11T10:24:25.028Z,35.01
2023-05-11T10:25:25.079Z,35.69
2023-05-11T10:26:25.135Z,35.55
2023-05-11T10:27:25.161Z,35.55
2023-05-11T10:28:25.172Z,35.46
2023-05-11T10:29:25.219Z,35.45
2023-05-11T10:30:25.228Z,35.30
2023-05-11T10:31:25.269Z,35.27
2023-05-11T10:32:25.287Z,35.14
2023-05-11T10:33:25.270Z,35.08
2023-05-11T10:34:25.335Z,35.08
2023-05-11T10:35:25.333Z,35.15
2023-05-11T10:36:25.372Z,35.06
2023-05-11T10:37:25.405Z,35.07
2023-05-11T10:38:25.475Z,34.98
2023-05-11T10:39:25.507Z,34.83
2023-05-11T10:40:25.508Z,34.78
2023-05-11T10:41:25.564Z,34.72
2023-05-11T10:42:25.643Z,34.54
2023-05-11T10:43:25.693Z,34.54
2023-05-11T10:44:25.733Z,34.44
2023-05-11T10:45:25.811Z,34.46
2023-05-11T10:46:26.969Z,34.15
2023-05-11T10:47:25.886Z,34.18
2023-05-11T10:48:25.846Z,34.20
2023-05-11T10:49:25.835Z,34.15
2023-05-11T10:50:25.813Z,34.19
2023-05-11T10:51:25.827Z,34.07
2023-05-11T10:52:27.244Z,34.01
2023-05-11T10:53:25.786Z,33.89
2023-05-11T10:54:25.781Z,33.86
2023-05-11T10:55:25.789Z,33.57
2023-05-11T10:56:25.770Z,33.65
2023-05-11T10:57:25.809Z,33.77
2023-05-11T10:58:25.756Z,33.66
2023-05-11T10:59:25.759Z,33.27
2023-05-11T11:00:25.751Z,33.36
2023-05-11T11:01:25.771Z,33.23
2023-05-11T11:02:25.752Z,33.07
2023-05-11T11:03:25.735Z,33.38
2023-05-11T11:04:26.863Z,33.05
2023-05-11T11:05:25.773Z,33.58
2023-05-11T11:06:25.721Z,33.64
2023-05-11T11:07:25.724Z,33.54
2023-05-11T11:08:25.705Z,33.57
2023-05-11T11:09:25.688Z,33.68
2023-05-11T11:10:25.673Z,33.86
2023-05-11T11:11:25.691Z,33.65
2023-05-11T11:12:25.742Z,33.62
2023-05-11T11:13:25.657Z,33.41
2023-05-11T11:14:25.665Z,33.31
2023-05-11T11:15:25.673Z,33.42
2023-05-11T11:16:25.663Z,32.59
2023-05-11T11:17:25.689Z,32.76
2023-05-11T11:18:25.741Z,32.22
2023-05-11T11:19:25.622Z,32.86
2023-05-11T11:20:25.616Z,32.80
2023-05-11T11:21:26.245Z,32.72
2023-05-11T11:22:25.611Z,32.95
2023-05-11T11:23:25.599Z,32.92
2023-05-11T11:24:25.600Z,33.14
2023-05-11T11:25:25.586Z,32.82
2023-05-11T11:26:25.561Z,32.83
2023-05-11T11:27:28.799Z,32.72
2023-05-11T11:28:25.650Z,33.07
2023-05-11T11:29:25.560Z,32.97
2023-05-11T11:30:25.577Z,33.41
2023-05-11T11:31:25.575Z,33.02
2023-05-11T11:32:25.630Z,32.72
2023-05-11T11:33:25.517Z,32.82
2023-05-11T11:34:25.519Z,33.11
2023-05-11T11:35:25.529Z,33.13
2023-05-11T11:36:25.516Z,32.84
2023-05-11T11:37:25.500Z,32.74
2023-05-11T11:38:26.705Z,32.52
2023-05-11T11:39:25.571Z,32.35
2023-05-11T11:40:25.479Z,32.37
2023-05-11T11:41:25.473Z,32.34
2023-05-11T11:42:25.476Z,32.11
2023-05-11T11:43:25.454Z,32.06
2023-05-11T11:44:25.455Z,32.17
2023-05-11T11:45:25.467Z,32.10
2023-05-11T11:46:25.482Z,32.07
2023-05-11T11:47:25.437Z,32.05
2023-05-11T11:48:25.431Z,32.00
2023-05-11T11:49:25.426Z,31.96
2023-05-11T11:50:25.407Z,31.98
2023-05-11T11:51:25.415Z,31.93
2023-05-11T11:52:25.409Z,31.86
2023-05-11T11:53:25.382Z,31.94
2023-05-11T11:54:25.378Z,31.79
2023-05-11T11:55:25.379Z,31.85
2023-05-11T11:56:25.362Z,31.77
2023-05-11T11:57:25.380Z,31.76
2023-05-11T11:58:25.348Z,31.72
2023-05-11T11:59:25.340Z,31.74
2023-05-11T12:00:25.333Z,31.66
2023-05-11T12:01:25.335Z,31.67
2023-05-11T12:02:25.427Z,31.68
2023-05-11T12:03:25.433Z,32.03
2023-05-11T12:04:25.484Z,31.96
2023-05-11T12:05:25.580Z,32.00
2023-05-11T12:06:26.749Z,31.87
2023-05-11T12:07:25.293Z,31.78
2023-05-11T12:08:25.284Z,31.80
2023-05-11T12:09:25.284Z,31.76
2023-05-11T12:10:25.267Z,31.72
2023-05-11T12:11:25.257Z,31.70
2023-05-11T12:12:25.289Z,31.68
2023-05-11T12:13:25.258Z,31.66
2023-05-11T12:14:25.248Z,31.60
2023-05-11T12:15:25.238Z,31.67
2023-05-11T12:16:25.261Z,31.65
2023-05-11T12:17:25.377Z,31.63
2023-05-11T12:18:25.217Z,31.63
2023-05-11T12:19:25.197Z,31.65
2023-05-11T12:20:25.207Z,31.62
2023-05-11T12:21:25.188Z,31.59
2023-05-11T12:22:25.195Z,31.31
2023-05-11T12:23:25.196Z,31.74
2023-05-11T12:24:25.182Z,32.01
2023-05-11T12:25:25.161Z,31.83
2023-05-11T12:26:25.159Z,31.67
2023-05-11T12:27:25.148Z,31.72
2023-05-11T12:28:25.145Z,31.66
2023-05-11T12:29:25.151Z,31.62
2023-05-11T12:30:25.135Z,32.54
2023-05-11T12:31:25.153Z,33.87
2023-05-11T12:32:25.133Z,35.55
2023-05-11T12:33:25.168Z,36.57
2023-05-11T12:34:25.135Z,37.41
2023-05-11T12:35:25.127Z,37.32
2023-05-11T12:36:25.099Z,37.04
2023-05-11T12:37:25.104Z,36.79
2023-05-11T12:38:25.101Z,36.41
2023-05-11T12:39:25.070Z,36.04
2023-05-11T12:40:25.107Z,35.83
2023-05-11T12:41:25.062Z,35.48
2023-05-11T12:42:25.079Z,35.21
2023-05-11T12:43:25.074Z,34.96
2023-05-11T12:44:25.105Z,34.67
2023-05-11T12:45:25.120Z,34.48
2023-05-11T12:46:25.159Z,34.24
2023-05-11T12:47:25.208Z,34.07
2023-05-11T12:48:25.161Z,33.97
2023-05-11T12:49:26.849Z,33.88
2023-05-11T12:50:25.265Z,33.69
2023-05-11T12:51:25.313Z,33.60
2023-05-11T12:52:25.393Z,33.51
2023-05-11T12:53:25.414Z,33.34